createdAt,value
2022-08-21T00:02:02.144Z,101426.69
2022-08-21T00:04:29.524Z,101425.00
2022-08-21T00:06:58.034Z,101402.06
2022-08-21T00:09:24.465Z,101427.03
2022-08-21T00:11:50.995Z,101419.41
2022-08-21T00:14:17.817Z,101418.28
2022-08-21T00:16:44.345Z,101420.97
2022-08-21T00:19:11.118Z,101408.53
2022-08-21T00:21:37.746Z,101412.06
2022-08-21T00:24:04.727Z,101408.53
2022-08-21T00:26:31.195Z,101404.00
2022-08-21T00:28:58.402Z,101399.47
2022-08-21T00:31:25.898Z,101386.66
2022-08-21T00:33:52.603Z,101405.84
2022-08-21T00:36:24.427Z,101395.31
2022-08-21T00:38:50.878Z,101402.47
2022-08-21T00:41:36.289Z,101398.09
2022-08-21T00:44:04.891Z,101386.25
2022-08-21T00:46:31.686Z,101399.09
2022-08-21T00:48:59.418Z,101402.63
2022-08-21T00:51:40.927Z,101402.75
2022-08-21T00:54:12.942Z,101373.22
2022-08-21T00:56:48.408Z,101396.16
2022-08-21T00:59:15.628Z,101401.00
2022-08-21T01:01:42.054Z,101403.53
2022-08-21T01:04:08.611Z,101403.69
2022-08-21T01:06:36.083Z,101396.81
2022-08-21T01:09:03.722Z,101407.50
2022-08-21T01:11:30.827Z,101384.88
2022-08-21T01:13:57.421Z,101406.97
2022-08-21T01:16:24.469Z,101410.63
2022-08-21T01:18:52.140Z,101398.34
2022-08-21T01:21:28.675Z,101405.41
2022-08-21T01:23:57.473Z,101408.09
2022-08-21T01:26:34.150Z,101401.88
2022-08-21T01:29:10.968Z,101403.72
2022-08-21T01:31:38.118Z,101404.72
2022-08-21T01:34:05.821Z,101408.56
2022-08-21T01:36:32.579Z,101396.75
2022-08-21T01:38:59.255Z,101411.00
2022-08-21T01:41:25.814Z,101406.47
2022-08-21T01:43:52.284Z,101402.69
2022-08-21T01:46:19.312Z,101399.50
2022-08-21T01:48:45.807Z,101403.00
2022-08-21T01:51:12.972Z,101408.53
2022-08-21T01:53:40.347Z,101385.03
2022-08-21T01:56:12.719Z,101406.28
2022-08-21T01:58:42.394Z,101411.94
2022-08-21T02:01:10.326Z,101401.22
2022-08-21T02:03:37.707Z,101406.88
2022-08-21T02:06:07.729Z,101403.50
2022-08-21T02:08:34.965Z,101384.63
2022-08-21T02:11:01.671Z,101358.88
2022-08-21T02:13:28.075Z,101353.50
2022-08-21T02:15:54.522Z,101397.59
2022-08-21T02:18:21.177Z,101396.19
2022-08-21T02:20:56.026Z,101398.72
2022-08-21T02:23:26.640Z,101398.03
2022-08-21T02:25:57.939Z,101399.88
2022-08-21T02:28:24.618Z,101387.34
2022-08-21T02:30:53.486Z,101399.16
2022-08-21T02:33:20.492Z,101400.16
2022-08-21T02:35:48.159Z,101397.47
2022-08-21T02:38:18.520Z,101390.97
2022-08-21T02:40:48.085Z,101389.06
2022-08-21T02:43:16.485Z,101384.63
2022-08-21T02:45:44.624Z,101388.00
2022-08-21T02:48:14.630Z,101392.53
2022-08-21T02:50:44.279Z,101388.16
2022-08-21T02:53:15.324Z,101385.31
2022-08-21T02:55:41.796Z,101391.53
2022-08-21T02:58:09.138Z,101381.78
2022-08-21T03:00:37.697Z,101383.47
2022-08-21T03:03:05.788Z,101383.47
2022-08-21T03:05:33.872Z,101371.50
2022-08-21T03:08:02.790Z,101382.50
2022-08-21T03:10:30.048Z,101381.66
2022-08-21T03:12:56.627Z,101372.91
2022-08-21T03:15:25.706Z,101374.31
2022-08-21T03:17:55.335Z,101379.81
2022-08-21T03:20:24.858Z,101378.13
2022-08-21T03:22:53.279Z,101370.22
2022-08-21T03:25:28.349Z,101365.28
2022-08-21T03:28:12.876Z,101381.66
2022-08-21T03:30:45.427Z,101374.44
2022-08-21T03:33:14.990Z,101378.13
2022-08-21T03:35:44.173Z,101375.59
2022-08-21T03:38:11.311Z,101373.88
2022-08-21T03:40:37.853Z,101371.22
2022-08-21T03:43:04.312Z,101365.84
2022-08-21T03:45:30.831Z,101373.03
2022-08-21T03:47:58.985Z,101376.72
2022-08-21T03:50:28.011Z,101369.53
2022-08-21T03:52:54.561Z,101376.72
2022-08-21T03:55:21.190Z,101368.53
2022-08-21T03:57:47.807Z,101378.41
2022-08-21T04:00:16.158Z,101374.75
2022-08-21T04:02:44.618Z,101348.56
2022-08-21T04:05:13.589Z,101356.31
2022-08-21T04:07:42.951Z,101376.56
2022-08-21T04:10:09.792Z,101380.94
2022-08-21T04:12:36.399Z,101361.06
2022-08-21T04:15:03.146Z,101380.94
2022-08-21T04:17:29.617Z,101355.75
2022-08-21T04:19:56.197Z,101378.56
2022-08-21T04:22:23.207Z,101383.63
2022-08-21T04:24:49.778Z,101345.75
2022-08-21T04:27:16.206Z,101380.66
2022-08-21T04:29:42.629Z,101383.72
2022-08-21T04:32:09.212Z,101386.66
2022-08-21T04:34:35.682Z,101388.75
2022-08-21T04:37:02.110Z,101374.34
2022-08-21T04:39:29.718Z,101376.41
2022-08-21T04:41:56.523Z,101382.25
2022-08-21T04:44:22.942Z,101390.25
2022-08-21T04:46:49.357Z,101388.66
2022-08-21T04:49:15.834Z,101392.44
2022-08-21T04:51:42.516Z,101383.03
2022-08-21T04:54:13.319Z,101397.16
2022-08-21T04:56:48.157Z,101395.50
2022-08-21T04:59:25.228Z,101397.59
2022-08-21T05:01:52.703Z,101395.13
2022-08-21T05:04:23.399Z,101397.88
2022-08-21T05:06:52.380Z,101397.25
2022-08-21T05:09:20.375Z,101396.50
2022-08-21T05:11:47.271Z,101380.91
2022-08-21T05:14:13.999Z,101395.75
2022-08-21T05:16:41.533Z,101394.97
2022-08-21T05:19:08.290Z,101389.97
2022-08-21T05:21:36.076Z,101407.91
2022-08-21T05:24:03.114Z,101412.00
2022-08-21T05:26:29.555Z,101395.78
2022-08-21T05:28:57.383Z,101400.03
2022-08-21T05:31:24.117Z,101400.44
2022-08-21T05:33:50.747Z,101400.28
2022-08-21T05:36:19.416Z,101398.63
2022-08-21T05:38:46.846Z,101400.88
2022-08-21T05:41:13.579Z,101406.09
2022-08-21T05:43:40.316Z,101377.50
2022-08-21T05:46:08.615Z,101402.59
2022-08-21T05:48:36.614Z,101402.97
2022-08-21T05:51:12.185Z,101397.09
2022-08-21T05:53:39.398Z,101400.97
2022-08-21T05:56:06.340Z,101408.22
2022-08-21T05:58:34.128Z,101388.03
2022-08-21T06:01:03.116Z,101414.63
2022-08-21T06:03:32.902Z,101408.72
2022-08-21T06:05:59.699Z,101402.13
2022-08-21T06:08:27.108Z,101406.13
2022-08-21T06:10:55.720Z,101413.16
2022-08-21T06:13:23.310Z,101389.91
2022-08-21T06:15:51.186Z,101412.25
2022-08-21T06:18:17.752Z,101413.19
2022-08-21T06:20:45.060Z,101416.81
2022-08-21T06:23:11.578Z,101410.66
2022-08-21T06:25:37.985Z,101403.00
2022-08-21T06:28:07.492Z,101402.44
2022-08-21T06:30:34.950Z,101400.22
2022-08-21T06:33:02.440Z,101408.81
2022-08-21T06:35:30.072Z,101410.34
2022-08-21T06:37:58.139Z,101405.72
2022-08-21T06:40:25.089Z,101398.88
2022-08-21T06:42:51.596Z,101407.13
2022-08-21T06:45:18.422Z,101404.91
2022-08-21T06:47:44.858Z,101397.25
2022-08-21T06:50:11.510Z,101404.44
2022-08-21T06:52:38.538Z,101396.41
2022-08-21T06:55:07.574Z,101401.41
2022-08-21T06:57:34.591Z,101391.50
2022-08-21T07:00:01.186Z,101393.78
2022-08-21T07:02:27.665Z,101390.41
2022-08-21T07:04:54.191Z,101382.09
2022-08-21T07:07:20.599Z,101385.22
2022-08-21T07:09:47.031Z,101379.19
2022-08-21T07:12:13.912Z,101365.13
2022-08-21T07:14:40.427Z,101366.78
2022-08-21T07:17:06.892Z,101366.09
2022-08-21T07:19:33.371Z,101369.13
2022-08-21T07:22:03.092Z,101362.50
2022-08-21T07:24:30.188Z,101366.81
2022-08-21T07:26:56.654Z,101370.66
2022-08-21T07:29:23.089Z,101372.88
2022-08-21T07:31:49.546Z,101376.06
2022-08-21T07:34:17.225Z,101371.28
2022-08-21T07:36:43.733Z,101364.28
2022-08-21T07:39:10.402Z,101362.88
2022-08-21T07:41:37.131Z,101368.97
2022-08-21T07:44:04.083Z,101363.56
2022-08-21T07:46:33.163Z,101368.22
2022-08-21T07:48:59.638Z,101364.09
2022-08-21T07:51:28.654Z,101353.06
2022-08-21T07:53:58.678Z,101360.00
2022-08-21T07:56:25.297Z,101359.22
2022-08-21T07:58:51.790Z,101361.28
2022-08-21T08:01:18.507Z,101369.47
2022-08-21T08:03:46.095Z,101346.03
2022-08-21T08:06:17.598Z,101355.91
2022-08-21T08:08:44.127Z,101366.38
2022-08-21T08:11:11.965Z,101354.66
2022-08-21T08:13:44.450Z,101366.19
2022-08-21T08:16:11.181Z,101362.19
2022-08-21T08:18:38.344Z,101365.31
2022-08-21T08:21:05.989Z,101361.78
2022-08-21T08:23:33.397Z,101354.03
2022-08-21T08:26:00.148Z,101358.41
2022-08-21T08:28:28.098Z,101356.75
2022-08-21T08:30:54.569Z,101355.69
2022-08-21T08:33:21.258Z,101356.53
2022-08-21T08:35:50.304Z,101353.13
2022-08-21T08:38:20.917Z,101358.56
2022-08-21T08:41:19.853Z,101356.66
2022-08-21T08:43:54.442Z,101343.03
2022-08-21T08:46:31.575Z,101355.59
2022-08-21T08:49:04.099Z,101351.63
2022-08-21T08:51:55.860Z,101353.25
2022-08-21T08:54:42.505Z,101331.50
2022-08-21T08:57:16.874Z,101330.88
2022-08-21T08:59:49.263Z,101348.19
2022-08-21T09:02:17.685Z,101344.78
2022-08-21T09:04:47.689Z,101356.94
2022-08-21T09:07:25.298Z,101341.69
2022-08-21T09:10:29.026Z,101341.69
2022-08-21T09:13:10.354Z,101342.75
2022-08-21T09:15:55.555Z,101342.47
2022-08-21T09:18:28.497Z,101333.00
2022-08-21T09:21:14.491Z,101336.44
2022-08-21T09:23:56.344Z,101334.66
2022-08-21T09:26:40.726Z,101335.81
2022-08-21T09:29:11.612Z,101329.59
2022-08-21T09:31:39.234Z,101335.84
2022-08-21T09:34:09.705Z,101336.25
2022-08-21T09:36:43.975Z,101330.69
2022-08-21T09:39:13.439Z,101329.91
2022-08-21T09:41:41.114Z,101328.09
2022-08-21T09:44:09.492Z,101327.31
2022-08-21T09:46:37.305Z,101327.88
2022-08-21T09:49:06.870Z,101322.16
2022-08-21T09:51:52.415Z,101321.56
2022-08-21T09:54:22.525Z,101322.00
2022-08-21T09:57:20.059Z,101323.78
2022-08-21T09:59:47.823Z,101315.13
2022-08-21T10:02:32.244Z,101322.16
2022-08-21T10:05:03.778Z,101323.06
2022-08-21T10:07:32.906Z,101314.41
2022-08-21T10:10:05.332Z,101325.38
2022-08-21T10:13:13.015Z,101325.00
2022-08-21T10:16:05.747Z,101326.47
2022-08-21T10:18:43.370Z,101319.88
2022-08-21T10:21:24.614Z,101312.38
2022-08-21T10:24:24.006Z,101310.94
2022-08-21T10:27:19.592Z,101313.81
2022-08-21T10:30:02.416Z,101320.84
2022-08-21T10:32:44.550Z,101317.03
2022-08-21T10:35:15.405Z,101317.69
2022-08-21T10:37:50.951Z,101319.78
2022-08-21T10:40:37.898Z,101324.75
2022-08-21T10:43:39.271Z,101267.56
2022-08-21T10:46:11.805Z,101327.53
2022-08-21T10:48:44.075Z,101308.97
2022-08-21T10:51:51.215Z,101321.28
2022-08-21T10:54:45.564Z,101327.47
2022-08-21T10:57:32.368Z,101316.88
2022-08-21T11:00:12.763Z,101329.78
2022-08-21T11:02:57.542Z,101321.22
2022-08-21T11:05:36.263Z,101323.47
2022-08-21T11:08:09.524Z,101316.56
2022-08-21T11:10:59.331Z,101318.06
2022-08-21T11:13:41.408Z,101304.09
2022-08-21T11:16:27.117Z,101324.38
2022-08-21T11:19:01.889Z,101321.66
2022-08-21T11:21:31.977Z,101319.56
2022-08-21T11:24:10.736Z,101318.09
2022-08-21T11:26:43.976Z,101317.25
2022-08-21T11:29:18.620Z,101288.34
2022-08-21T11:32:03.858Z,101320.00
2022-08-21T11:34:58.318Z,101328.59
2022-08-21T11:37:51.202Z,101326.97
2022-08-21T11:40:38.774Z,101329.66
2022-08-21T11:43:35.810Z,101325.84
2022-08-21T11:46:19.907Z,101334.81
2022-08-21T11:48:49.161Z,101329.63
2022-08-21T11:51:34.395Z,101325.38
2022-08-21T11:54:11.885Z,101320.94
2022-08-21T11:56:44.311Z,101317.81
2022-08-21T11:59:17.670Z,101334.69
2022-08-21T12:01:46.672Z,101321.22
2022-08-21T12:04:30.273Z,101319.88
2022-08-21T12:06:57.370Z,101317.56
2022-08-21T12:09:26.582Z,101320.09
2022-08-21T12:12:23.507Z,101262.41
2022-08-21T12:14:52.535Z,101292.47
2022-08-21T12:17:27.616Z,101311.84
2022-08-21T12:20:15.585Z,101304.41
2022-08-21T12:22:42.604Z,101306.25
2022-08-21T12:25:19.652Z,101316.16
2022-08-21T12:27:52.514Z,101322.91
2022-08-21T12:30:37.515Z,101316.06
2022-08-21T12:33:18.969Z,101312.25
2022-08-21T12:35:46.631Z,101286.09
2022-08-21T12:38:33.350Z,101310.72
2022-08-21T12:41:16.122Z,101305.00
2022-08-21T12:43:52.588Z,101306.38
2022-08-21T12:46:23.290Z,101305.13
2022-08-21T12:48:55.719Z,101304.31
2022-08-21T12:51:34.446Z,101299.09
2022-08-21T12:54:01.292Z,101279.47
2022-08-21T12:56:32.385Z,101299.19
2022-08-21T12:59:05.236Z,101296.78
2022-08-21T13:01:41.999Z,101310.78
2022-08-21T13:04:14.935Z,101300.47
2022-08-21T13:06:45.901Z,101303.66
2022-08-21T13:09:16.352Z,101303.84
2022-08-21T13:11:46.392Z,101298.47
2022-08-21T13:14:33.022Z,101300.00
2022-08-21T13:17:01.336Z,101311.16
2022-08-21T13:19:30.423Z,101296.66
2022-08-21T13:21:57.294Z,101295.66
2022-08-21T13:24:44.185Z,101293.03
2022-08-21T13:27:27.804Z,101274.34
2022-08-21T13:30:03.414Z,101304.94
2022-08-21T13:32:32.689Z,101293.50
2022-08-21T13:35:00.858Z,101271.19
2022-08-21T13:37:29.926Z,101272.88
2022-08-21T13:39:56.731Z,101285.53
2022-08-21T13:42:24.985Z,101293.09
2022-08-21T13:44:53.625Z,101287.25
2022-08-21T13:47:20.419Z,101282.94
2022-08-21T13:49:48.671Z,101282.88
2022-08-21T13:52:20.244Z,101275.63
2022-08-21T13:54:55.930Z,101274.94
2022-08-21T13:57:29.736Z,101287.91
2022-08-21T14:00:14.911Z,101287.00
2022-08-21T14:02:44.284Z,101251.09
2022-08-21T14:05:22.892Z,101269.50
2022-08-21T14:07:51.920Z,101282.41
2022-08-21T14:10:22.986Z,101284.06
2022-08-21T14:12:53.630Z,101271.38
2022-08-21T14:15:25.947Z,101280.25
2022-08-21T14:17:52.673Z,101277.50
2022-08-21T14:20:31.759Z,101286.41
2022-08-21T14:22:58.473Z,101278.66
2022-08-21T14:25:25.421Z,101279.38
2022-08-21T14:28:13.842Z,101279.94
2022-08-21T14:30:44.849Z,101270.44
2022-08-21T14:33:15.229Z,101266.28
2022-08-21T14:35:42.677Z,101284.78
2022-08-21T14:38:22.573Z,101279.53
2022-08-21T14:40:58.712Z,101286.88
2022-08-21T14:43:27.453Z,101277.00
2022-08-21T14:45:54.801Z,101276.53
2022-08-21T14:48:21.220Z,101270.22
2022-08-21T14:50:48.358Z,101271.69
2022-08-21T14:53:14.852Z,101278.84
2022-08-21T14:55:59.942Z,101271.16
2022-08-21T14:58:26.909Z,101276.41
2022-08-21T15:00:54.915Z,101273.97
2022-08-21T15:03:22.843Z,101271.53
2022-08-21T15:05:50.066Z,101261.16
2022-08-21T15:08:17.067Z,101273.03
2022-08-21T15:11:08.243Z,101272.47
2022-08-21T15:13:31.721Z,101276.56
2022-08-21T15:15:59.150Z,101282.13
2022-08-21T15:18:29.020Z,101281.00
2022-08-21T15:20:55.569Z,101277.44
2022-08-21T15:23:22.642Z,101271.09
2022-08-21T15:25:50.301Z,101262.00
2022-08-21T15:28:18.999Z,101268.41
2022-08-21T15:30:46.235Z,101258.25
2022-08-21T15:33:12.851Z,101271.81
2022-08-21T15:35:41.201Z,101266.66
2022-08-21T15:38:11.196Z,101263.91
2022-08-21T15:40:39.393Z,101266.38
2022-08-21T15:43:29.915Z,101265.88
2022-08-21T15:45:59.221Z,101262.81
2022-08-21T15:48:25.732Z,101275.75
2022-08-21T15:50:52.135Z,101264.69
2022-08-21T15:53:18.738Z,101257.47
2022-08-21T15:55:45.246Z,101264.88
2022-08-21T15:58:16.626Z,101267.34
2022-08-21T16:00:45.116Z,101238.28
2022-08-21T16:03:17.621Z,101264.81
2022-08-21T16:05:49.537Z,101262.84
2022-08-21T16:08:16.085Z,101269.22
2022-08-21T16:10:42.677Z,101260.06
2022-08-21T16:13:20.988Z,101265.06
2022-08-21T16:15:47.425Z,101264.50
2022-08-21T16:18:14.181Z,101260.59
2022-08-21T16:20:41.052Z,101247.78
2022-08-21T16:23:07.602Z,101260.75
2022-08-21T16:25:37.852Z,101255.47
2022-08-21T16:28:09.372Z,101266.19
2022-08-21T16:30:38.782Z,101261.13
2022-08-21T16:33:06.762Z,101221.50
2022-08-21T16:35:33.398Z,101259.59
2022-08-21T16:37:59.873Z,101275.22
2022-08-21T16:40:27.731Z,101265.75
2022-08-21T16:42:54.436Z,101269.25
2022-08-21T16:45:21.880Z,101278.81
2022-08-21T16:47:48.562Z,101277.81
2022-08-21T16:50:19.385Z,101276.28
2022-08-21T16:52:45.813Z,101278.81
2022-08-21T16:55:12.390Z,101266.53
2022-08-21T16:57:38.963Z,101269.03
2022-08-21T17:00:14.039Z,101270.75
2022-08-21T17:02:45.441Z,101259.81
2022-08-21T17:05:12.899Z,101270.81
2022-08-21T17:07:41.514Z,101273.63
2022-08-21T17:10:09.494Z,101264.81
2022-08-21T17:12:36.705Z,101265.81
2022-08-21T17:15:13.250Z,101270.31
2022-08-21T17:17:39.730Z,101271.72
2022-08-21T17:20:06.860Z,101265.81
2022-08-21T17:22:33.398Z,101274.72
2022-08-21T17:24:59.920Z,101273.69
2022-08-21T17:27:28.173Z,101285.28
2022-08-21T17:29:56.040Z,101276.47
2022-08-21T17:32:23.229Z,101282.22
2022-08-21T17:34:49.708Z,101280.25
2022-08-21T17:37:16.571Z,101260.16
2022-08-21T17:39:43.243Z,101256.91
2022-08-21T17:42:13.605Z,101294.41
2022-08-21T17:44:43.565Z,101289.78
2022-08-21T17:47:10.510Z,101302.16
2022-08-21T17:49:37.568Z,101296.09
2022-08-21T17:52:04.736Z,101300.63
2022-08-21T17:54:31.248Z,101309.69
2022-08-21T17:56:58.206Z,101288.13
2022-08-21T17:59:24.908Z,101284.25
2022-08-21T18:01:51.433Z,101308.63
2022-08-21T18:04:18.098Z,101308.38
2022-08-21T18:06:45.146Z,101308.97
2022-08-21T18:09:12.828Z,101323.75
2022-08-21T18:11:41.899Z,101325.75
2022-08-21T18:14:10.383Z,101325.22
2022-08-21T18:16:37.793Z,101322.59
2022-08-21T18:19:15.815Z,101325.13
2022-08-21T18:21:42.389Z,101322.50
2022-08-21T18:24:08.914Z,101319.84
2022-08-21T18:26:39.344Z,101321.16
2022-08-21T18:29:08.664Z,101321.38
2022-08-21T18:31:38.025Z,101331.50
2022-08-21T18:34:17.017Z,101306.19
2022-08-21T18:36:46.046Z,101326.53
2022-08-21T18:39:34.974Z,101344.13
2022-08-21T18:42:02.461Z,101351.28
2022-08-21T18:44:30.304Z,101331.41
2022-08-21T18:47:07.367Z,101358.41
2022-08-21T18:49:34.355Z,101344.59
2022-08-21T18:52:00.828Z,101355.91
2022-08-21T18:54:29.817Z,101325.75
2022-08-21T18:56:56.454Z,101351.69
2022-08-21T18:59:26.889Z,101358.81
2022-08-21T19:01:54.325Z,101356.72
2022-08-21T19:04:42.962Z,101337.88
2022-08-21T19:07:07.551Z,101364.22
2022-08-21T19:09:33.961Z,101363.59
2022-08-21T19:12:00.521Z,101361.91
2022-08-21T19:14:28.284Z,101371.50
2022-08-21T19:16:54.897Z,101356.22
2022-08-21T19:19:21.377Z,101377.75
2022-08-21T19:21:49.451Z,101372.50
2022-08-21T19:27:02.736Z,101383.91
2022-08-21T19:29:35.026Z,101378.66
2022-08-21T19:32:15.682Z,101375.09
2022-08-21T19:34:44.721Z,101369.81
2022-08-21T19:37:16.196Z,101363.91
2022-08-21T19:39:48.601Z,101365.53
2022-08-21T19:42:17.225Z,101348.28
2022-08-21T19:44:45.241Z,101372.97
2022-08-21T19:47:19.156Z,101367.91
2022-08-21T19:49:54.314Z,101383.75
2022-08-21T19:52:21.906Z,101367.34
2022-08-21T19:54:48.915Z,101375.22
2022-08-21T19:57:16.507Z,101377.06
2022-08-21T19:59:43.532Z,101376.81
2022-08-21T20:02:12.122Z,101379.03
2022-08-21T20:04:38.922Z,101381.09
2022-08-21T20:07:26.513Z,101387.56
2022-08-21T20:09:54.058Z,101386.91
2022-08-21T20:12:20.539Z,101382.47
2022-08-21T20:14:47.803Z,101393.56
2022-08-21T20:17:17.467Z,101400.06
2022-08-21T20:19:45.131Z,101394.81
2022-08-21T20:22:12.122Z,101395.38
2022-08-21T20:24:39.564Z,101394.09
2022-08-21T20:27:10.319Z,101389.47
2022-08-21T20:29:39.366Z,101397.59
2022-08-21T20:32:07.942Z,101387.31
2022-08-21T20:34:39.402Z,101393.31
2022-08-21T20:37:05.911Z,101384.22
2022-08-21T20:39:32.357Z,101413.09
2022-08-21T20:41:58.895Z,101406.38
2022-08-21T20:44:30.953Z,101403.19
2022-08-21T20:46:59.138Z,101408.81
2022-08-21T20:49:31.789Z,101402.03
2022-08-21T20:52:00.870Z,101380.81
2022-08-21T20:54:56.170Z,101420.19
2022-08-21T20:57:51.113Z,101394.38
2022-08-21T21:00:21.173Z,101398.34
2022-08-21T21:03:01.708Z,101402.28
2022-08-21T21:05:36.542Z,101409.97
2022-08-21T21:08:25.217Z,101416.41
2022-08-21T21:10:58.080Z,101417.81
2022-08-21T21:13:33.949Z,101419.03
2022-08-21T21:16:08.501Z,101417.72
2022-08-21T21:18:42.905Z,101417.72
2022-08-21T21:21:32.970Z,101422.13
2022-08-21T21:24:12.094Z,101418.31
2022-08-21T21:26:48.720Z,101419.06
2022-08-21T21:29:30.036Z,101412.13
2022-08-21T21:31:56.886Z,101413.09
2022-08-21T21:34:26.725Z,101418.69
2022-08-21T21:37:05.858Z,101412.44
2022-08-21T21:39:50.746Z,101425.31
2022-08-21T21:42:41.545Z,101424.66
2022-08-21T21:45:23.600Z,101426.91
2022-08-21T21:48:03.578Z,101422.91
2022-08-21T21:51:01.131Z,101434.59
2022-08-21T21:53:55.330Z,101437.09
2022-08-21T21:57:10.013Z,101426.28
2022-08-21T22:00:01.271Z,101430.94
2022-08-21T22:02:30.745Z,101429.06
2022-08-21T22:05:18.201Z,101430.19
2022-08-21T22:07:54.917Z,101435.59
2022-08-21T22:13:26.564Z,101438.84
2022-08-21T22:15:54.493Z,101437.00
2022-08-21T22:18:26.987Z,101442.03
2022-08-21T22:21:11.956Z,101438.13
2022-08-21T22:23:44.901Z,101447.09
2022-08-21T22:26:16.755Z,101441.66
2022-08-21T22:28:47.398Z,101444.56
2022-08-21T22:31:21.814Z,101452.31
2022-08-21T22:34:02.384Z,101444.19
2022-08-21T22:36:35.713Z,101416.28
2022-08-21T22:39:11.939Z,101438.47
2022-08-21T22:41:44.075Z,101435.97
2022-08-21T22:44:27.460Z,101429.50
2022-08-21T22:46:57.089Z,101434.47
2022-08-21T22:49:35.355Z,101437.16
2022-08-21T22:52:08.007Z,101435.31
2022-08-21T22:54:45.183Z,101428.19
2022-08-21T22:57:21.784Z,101435.50
2022-08-21T23:00:00.636Z,101437.00
2022-08-21T23:02:43.528Z,101438.84
2022-08-21T23:05:34.688Z,101441.19
2022-08-21T23:08:46.318Z,101452.22
2022-08-21T23:11:20.895Z,101442.97
2022-08-21T23:13:52.630Z,101451.09
2022-08-21T23:16:25.053Z,101453.78
2022-08-21T23:18:51.956Z,101444.19
2022-08-21T23:21:57.743Z,101444.81
2022-08-21T23:24:33.559Z,101449.81
2022-08-21T23:27:18.729Z,101451.84
2022-08-21T23:30:03.282Z,101448.47
2022-08-21T23:32:52.546Z,101450.91
2022-08-21T23:35:59.634Z,101451.75
2022-08-21T23:38:51.316Z,101449.41
2022-08-21T23:41:44.190Z,101454.81
2022-08-21T23:44:33.136Z,101453.53
2022-08-21T23:47:14.495Z,101449.97
2022-08-21T23:49:47.700Z,101448.31
2022-08-21T23:52:19.842Z,101444.94
2022-08-21T23:54:52.392Z,101449.69
2022-08-21T23:57:39.398Z,101443.25
